Time;durP1;ratioP1;P1;durP2;ratioP2;P2;SDS_P1;SDS_P2;PMS_P1;PMS_P2;Temp;Humidity;BMP_temperature;BMP_pressure;BME280_temperature;BME280_humidity;BME280_pressure;Samples;Min_cycle;Max_cycle;Signal;HPM_P1;HPM_P2
2022/09/15 04:01:31;;;;;;;4.50;3.80;;;12.70;96.30;;;;;;5468315;23;20500;-78
2022/09/15 04:03:57;;;;;;;3.90;3.37;;;12.60;96.30;;;;;;5003827;28;20499;-78
2022/09/15 04:06:24;;;;;;;4.10;2.90;;;12.60;96.30;;;;;;5011830;28;20720;-78
2022/09/15 04:08:50;;;;;;;3.40;3.10;;;12.60;96.30;;;;;;5014572;28;20258;-78
2022/09/15 04:11:17;;;;;;;3.53;2.97;;;12.60;96.30;;;;;;5005906;28;20428;-78
2022/09/15 04:13:44;;;;;;;3.53;2.70;;;12.60;96.30;;;;;;4994664;28;20421;-78
2022/09/15 04:16:18;;;;;;;3.43;3.17;;;12.60;96.30;;;;;;4963797;28;20926;-79
2022/09/15 04:18:44;;;;;;;2.83;2.63;;;12.50;96.30;;;;;;4957167;28;20422;-78
2022/09/15 04:37:10;;;;;;;1.80;1.70;;;12.60;96.30;;;;;;4916002;29;20459;-78
2022/09/15 04:39:36;;;;;;;2.87;1.90;;;12.60;96.30;;;;;;4916343;29;20437;-78
2022/09/15 04:42:04;;;;;;;3.83;1.50;;;12.60;96.30;;;;;;4929084;29;20204;-77
2022/09/15 04:44:30;;;;;;;1.57;1.47;;;12.60;96.30;;;;;;4899489;29;20193;-78
2022/09/15 04:46:56;;;;;;;1.53;1.43;;;12.60;96.30;;;;;;4899042;29;20427;-76
2022/09/15 04:49:21;;;;;;;1.60;1.50;;;12.60;96.30;;;;;;4906370;29;20453;-77
2022/09/15 04:51:47;;;;;;;1.40;1.30;;;12.60;96.30;;;;;;4899003;29;20209;-78
2022/09/15 04:54:12;;;;;;;1.70;1.40;;;12.60;96.30;;;;;;4899082;29;20630;-79
2022/09/15 04:56:38;;;;;;;2.83;1.37;;;12.60;96.30;;;;;;4897300;29;20288;-78
2022/09/15 04:59:04;;;;;;;1.47;1.37;;;12.70;96.30;;;;;;4916224;29;20732;-78
2022/09/15 05:01:33;;;;;;;2.90;1.20;;;12.70;96.30;;;;;;4910740;29;20514;-78
2022/09/15 05:04:00;;;;;;;1.50;1.40;;;12.70;96.30;;;;;;4913117;29;20184;-78
2022/09/15 05:06:27;;;;;;;1.60;1.43;;;12.70;96.30;;;;;;4932117;29;20435;-79
2022/09/15 05:08:55;;;;;;;2.83;1.10;;;12.60;96.30;;;;;;4917436;29;20998;-79
2022/09/15 05:11:21;;;;;;;1.40;1.30;;;12.70;96.30;;;;;;4928556;29;20477;-78
2022/09/15 05:13:47;;;;;;;3.93;1.50;;;12.70;96.30;;;;;;4914111;29;20822;-78
2022/09/15 05:16:19;;;;;;;1.70;1.60;;;12.70;96.30;;;;;;4918797;29;20445;-79
2022/09/15 05:18:46;;;;;;;1.83;1.73;;;12.70;96.30;;;;;;4918966;29;20439;-78
2022/09/15 05:21:13;;;;;;;1.90;1.80;;;12.70;96.30;;;;;;4932421;29;20498;-78
2022/09/15 05:23:39;;;;;;;2.80;1.70;;;12.70;96.30;;;;;;4913595;29;20431;-78
2022/09/15 05:26:07;;;;;;;2.00;1.90;;;12.70;96.30;;;;;;4931569;29;20432;-78
2022/09/15 05:28:35;;;;;;;8.60;2.30;;;12.70;96.30;;;;;;4916009;29;20204;-79
2022/09/15 05:31:01;;;;;;;2.90;2.60;;;12.70;96.30;;;;;;4917365;29;20456;-78
2022/09/15 05:33:27;;;;;;;3.30;2.23;;;12.70;96.30;;;;;;4917388;29;20416;-78
2022/09/15 05:35:57;;;;;;;3.50;2.93;;;12.70;96.30;;;;;;4916423;29;20451;-78
2022/09/15 05:38:24;;;;;;;2.70;2.50;;;12.70;96.30;;;;;;4917525;29;20173;-78
2022/09/15 05:40:50;;;;;;;5.07;3.10;;;12.70;96.30;;;;;;4913694;29;20457;-77
2022/09/15 05:43:16;;;;;;;4.10;3.50;;;12.70;96.30;;;;;;4912048;29;20433;-78
2022/09/15 05:45:52;;;;;;;12.33;5.10;;;12.60;96.30;;;;;;4902347;29;20184;-78
2022/09/15 05:48:17;;;;;;;5.07;3.37;;;12.70;96.30;;;;;;4916940;29;20955;-79
2022/09/15 05:50:48;;;;;;;4.40;3.77;;;12.60;96.30;;;;;;4897377;29;20494;-78
2022/09/15 05:53:14;;;;;;;4.20;3.77;;;12.60;96.30;;;;;;4910365;29;20224;-78
2022/09/15 05:55:39;;;;;;;6.90;4.60;;;12.70;96.30;;;;;;4929471;28;20424;-79
2022/09/15 05:58:05;;;;;;;4.67;4.00;;;12.70;96.30;;;;;;4913109;29;20187;-78
2022/09/15 06:00:31;;;;;;;6.87;3.73;;;12.70;96.30;;;;;;4913224;29;20200;-79
2022/09/15 06:02:57;;;;;;;5.00;3.90;;;12.70;96.30;;;;;;4914750;29;20192;-78
2022/09/15 06:05:23;;;;;;;5.70;3.97;;;12.70;96.30;;;;;;4918190;29;20435;-78
2022/09/15 06:07:50;;;;;;;6.80;4.33;;;12.70;96.30;;;;;;4910237;29;20211;-77
2022/09/15 06:10:17;;;;;;;4.50;4.10;;;12.80;96.30;;;;;;4910317;29;20267;-78
2022/09/15 06:12:42;;;;;;;5.80;3.90;;;12.70;96.30;;;;;;4915587;29;20428;-79
2022/09/15 06:15:08;;;;;;;5.10;4.53;;;12.70;96.30;;;;;;4914725;29;20443;-77
2022/09/15 06:17:33;;;;;;;5.80;5.00;;;12.70;96.30;;;;;;4920153;29;20195;-77
2022/09/15 06:19:59;;;;;;;5.83;4.73;;;12.70;96.30;;;;;;4913061;29;20219;-78
2022/09/15 06:22:24;;;;;;;5.70;5.20;;;12.70;96.30;;;;;;4913890;29;20294;-78
2022/09/15 06:24:51;;;;;;;6.40;5.80;;;12.60;96.30;;;;;;4912157;29;20207;-77
2022/09/15 06:27:17;;;;;;;7.57;5.83;;;12.70;96.30;;;;;;4916724;29;20212;-79
2022/09/15 06:29:42;;;;;;;9.00;4.70;;;12.70;96.30;;;;;;4930692;29;21055;-79
2022/09/15 06:32:08;;;;;;;9.20;5.27;;;12.70;96.30;;;;;;4913609;29;20283;-77
2022/09/15 06:34:33;;;;;;;7.10;4.13;;;12.70;96.30;;;;;;4902995;29;20570;-79
2022/09/15 06:36:59;;;;;;;6.30;3.90;;;12.80;96.30;;;;;;4914831;29;20200;-78
2022/09/15 06:39:25;;;;;;;6.53;4.07;;;12.90;96.30;;;;;;4913893;29;20682;-78
2022/09/15 06:41:51;;;;;;;7.13;4.10;;;13.00;96.30;;;;;;4917094;29;20207;-79
2022/09/15 06:44:17;;;;;;;7.63;6.47;;;13.10;96.30;;;;;;4918035;29;20424;-79
2022/09/15 06:46:43;;;;;;;12.00;5.43;;;13.20;96.30;;;;;;4916143;29;20188;-78
2022/09/15 06:49:08;;;;;;;10.07;6.97;;;13.30;96.30;;;;;;4917414;29;20487;-78
2022/09/15 06:51:34;;;;;;;18.33;7.70;;;13.30;96.30;;;;;;4917311;29;20215;-78
2022/09/15 06:54:01;;;;;;;11.57;8.17;;;13.30;96.30;;;;;;4916711;29;20183;-79
2022/09/15 06:56:28;;;;;;;12.40;7.47;;;13.30;96.30;;;;;;4915808;29;20188;-78
2022/09/15 06:58:54;;;;;;;18.63;9.60;;;13.30;96.30;;;;;;4918666;29;20447;-78
2022/09/15 07:01:24;;;;;;;18.30;9.70;;;13.30;96.30;;;;;;4915709;29;20526;-79
2022/09/15 07:03:49;;;;;;;22.73;13.23;;;13.30;96.30;;;;;;4916532;29;20428;-78
2022/09/15 07:06:15;;;;;;;20.07;13.10;;;13.20;96.30;;;;;;4918153;29;20431;-79
2022/09/15 07:08:41;;;;;;;24.53;12.50;;;13.20;96.30;;;;;;4918463;29;20196;-79
2022/09/15 07:11:07;;;;;;;32.73;15.43;;;13.30;96.30;;;;;;4918578;29;20274;-79
2022/09/15 07:13:33;;;;;;;29.77;15.47;;;13.30;96.30;;;;;;4916862;29;20199;-78
2022/09/15 07:16:00;;;;;;;20.63;11.37;;;13.20;96.30;;;;;;4917767;29;20908;-79
2022/09/15 07:18:26;;;;;;;29.73;14.17;;;13.20;96.30;;;;;;4916445;29;20240;-79
2022/09/15 07:20:58;;;;;;;22.00;12.20;;;13.10;96.30;;;;;;4915542;29;20944;-78
2022/09/15 07:23:24;;;;;;;18.10;12.60;;;13.10;96.30;;;;;;4914816;29;20471;-79
2022/09/15 07:25:49;;;;;;;22.73;12.30;;;13.00;96.30;;;;;;4899457;29;20527;-78
2022/09/15 07:28:15;;;;;;;18.83;11.93;;;13.10;96.30;;;;;;4899449;29;20223;-78
2022/09/15 07:30:41;;;;;;;18.37;12.23;;;13.10;96.30;;;;;;4907879;29;20223;-79
2022/09/15 07:33:09;;;;;;;16.13;9.50;;;13.20;96.30;;;;;;4915201;29;20185;-79
2022/09/15 07:35:39;;;;;;;15.43;10.13;;;13.10;96.30;;;;;;4916899;29;20547;-79
2022/09/15 07:38:04;;;;;;;20.00;11.47;;;13.10;96.30;;;;;;4918969;29;20432;-79
2022/09/15 07:40:31;;;;;;;16.43;10.20;;;13.20;96.30;;;;;;4937596;29;20451;-79
2022/09/15 07:42:56;;;;;;;20.93;9.97;;;13.30;96.30;;;;;;4940632;29;20192;-78
2022/09/15 07:45:21;;;;;;;23.07;11.00;;;13.40;96.30;;;;;;4918906;29;20477;-79
2022/09/15 07:47:47;;;;;;;19.77;9.97;;;13.60;96.30;;;;;;4919377;29;20692;-75
2022/09/15 07:50:13;;;;;;;16.77;9.93;;;13.70;96.30;;;;;;4914391;29;20173;-74
2022/09/15 07:52:39;;;;;;;16.93;10.63;;;13.90;96.30;;;;;;4915237;29;20177;-75
2022/09/15 07:55:05;;;;;;;17.37;10.00;;;14.00;96.30;;;;;;4915372;29;21178;-76
2022/09/15 07:57:30;;;;;;;17.07;9.10;;;14.20;96.30;;;;;;4904315;29;20212;-78
2022/09/15 07:59:56;;;;;;;16.63;8.60;;;14.40;96.30;;;;;;4921275;29;20420;-78
2022/09/15 08:02:21;;;;;;;18.70;8.77;;;14.70;96.30;;;;;;4896278;29;20212;-80
2022/09/15 08:04:46;;;;;;;17.07;9.60;;;14.70;96.30;;;;;;4912094;29;20184;-79
2022/09/15 08:07:12;;;;;;;14.07;8.40;;;14.70;96.30;;;;;;4920517;29;20189;-79
2022/09/15 08:09:39;;;;;;;12.83;8.00;;;14.60;96.30;;;;;;4916182;29;20205;-79
2022/09/15 08:12:06;;;;;;;19.37;9.03;;;14.60;96.30;;;;;;4920242;29;20658;-79
2022/09/15 08:14:32;;;;;;;14.67;7.53;;;14.60;96.30;;;;;;4916051;29;20424;-79
2022/09/15 08:17:03;;;;;;;15.43;8.30;;;14.60;96.30;;;;;;4926350;29;20501;-79
2022/09/15 08:19:30;;;;;;;13.53;8.77;;;14.60;96.30;;;;;;4916009;29;20424;-79
2022/09/15 08:21:56;;;;;;;16.03;9.27;;;14.70;96.30;;;;;;4922183;29;20460;-79
2022/09/15 08:24:22;;;;;;;14.43;8.50;;;14.70;96.30;;;;;;4917448;29;20499;-79
2022/09/15 08:26:48;;;;;;;13.73;8.10;;;14.50;96.30;;;;;;4927922;29;20196;-80
2022/09/15 08:29:14;;;;;;;12.77;8.67;;;14.40;96.30;;;;;;4900771;29;20498;-79
2022/09/15 08:31:40;;;;;;;13.93;8.40;;;14.30;96.30;;;;;;4905319;29;21091;-79
2022/09/15 08:34:05;;;;;;;20.00;7.57;;;14.30;96.30;;;;;;4901794;29;20184;-79
2022/09/15 08:36:34;;;;;;;10.73;7.17;;;14.30;96.30;;;;;;4912119;29;20188;-79
2022/09/15 08:39:01;;;;;;;12.60;6.93;;;14.40;96.30;;;;;;4910074;29;20177;-79
2022/09/15 08:41:31;;;;;;;10.70;7.10;;;14.50;96.30;;;;;;4917104;29;20524;-79
2022/09/15 08:44:41;;;;;;;14.23;7.63;;;14.60;96.30;;;;;;4912346;29;20421;-79
2022/09/15 08:47:32;;;;;;;12.97;7.50;;;14.70;96.30;;;;;;4912544;29;20431;-79
2022/09/15 08:50:19;;;;;;;13.27;7.60;;;14.60;96.30;;;;;;4927058;29;20465;-79
2022/09/15 08:52:50;;;;;;;12.43;6.30;;;14.60;96.30;;;;;;4910807;29;20413;-79
2022/09/15 08:55:41;;;;;;;10.37;5.70;;;14.70;96.30;;;;;;4913599;29;20405;-79
2022/09/15 08:58:14;;;;;;;16.53;6.20;;;14.60;96.30;;;;;;4905335;29;20453;-79
2022/09/15 09:00:41;;;;;;;10.43;7.00;;;14.60;96.30;;;;;;4912931;29;20448;-79
2022/09/15 09:03:28;;;;;;;10.37;5.80;;;14.80;96.30;;;;;;4912242;29;20459;-79
2022/09/15 09:06:06;;;;;;;12.77;6.30;;;14.80;96.30;;;;;;4927944;29;20421;-79
2022/09/15 09:08:35;;;;;;;11.00;6.10;;;14.90;96.30;;;;;;4914817;29;20478;-79
2022/09/15 09:11:54;;;;;;;11.00;6.23;;;15.10;96.30;;;;;;4912869;29;20437;-79
2022/09/15 09:14:34;;;;;;;16.83;6.40;;;15.10;96.30;;;;;;4845075;29;20518;-79
2022/09/15 09:17:32;;;;;;;11.57;6.10;;;14.80;96.30;;;;;;4905907;29;20421;-79
2022/09/15 09:20:34;;;;;;;13.70;6.37;;;14.60;96.30;;;;;;4907129;29;20490;-79
2022/09/15 09:23:02;;;;;;;18.33;5.80;;;14.40;96.30;;;;;;4906266;29;20933;-79
2022/09/15 09:25:28;;;;;;;18.00;6.40;;;14.20;96.30;;;;;;4912795;29;20477;-79
2022/09/15 09:27:57;;;;;;;11.97;6.13;;;14.20;96.30;;;;;;4912326;29;20428;-79
2022/09/15 09:30:26;;;;;;;15.17;6.57;;;14.20;96.30;;;;;;4911653;29;20652;-79
2022/09/15 09:33:07;;;;;;;9.37;5.70;;;14.30;96.30;;;;;;4900084;29;20440;-79
2022/09/15 09:35:45;;;;;;;13.00;6.13;;;14.40;96.30;;;;;;4898659;29;20864;-79
2022/09/15 09:38:18;;;;;;;10.53;6.70;;;14.70;96.30;;;;;;4899480;29;20446;-79
2022/09/15 09:40:43;;;;;;;15.60;6.97;;;15.00;96.30;;;;;;4899528;29;20541;-79
2022/09/15 09:43:09;;;;;;;15.80;6.93;;;15.10;96.30;;;;;;4927727;29;20440;-79
2022/09/15 09:45:35;;;;;;;14.30;7.00;;;15.20;96.30;;;;;;4934581;29;20192;-79
2022/09/15 09:48:05;;;;;;;21.77;7.30;;;15.30;96.30;;;;;;4919138;29;20523;-79
2022/09/15 09:50:38;;;;;;;20.77;7.00;;;15.30;96.30;;;;;;4920541;29;20248;-79
2022/09/15 09:53:28;;;;;;;9.50;6.60;;;15.20;96.30;;;;;;4917475;29;21125;-79
2022/09/15 09:56:15;;;;;;;14.57;6.47;;;15.10;96.30;;;;;;4918809;29;20448;-79
2022/09/15 09:58:41;;;;;;;12.57;6.67;;;15.20;96.30;;;;;;4919193;29;20420;-79
2022/09/15 10:01:15;;;;;;;12.00;5.77;;;15.30;96.30;;;;;;4916242;29;20441;-79
2022/09/15 10:03:42;;;;;;;21.10;6.77;;;15.30;96.30;;;;;;4918841;29;20184;-79
2022/09/15 10:06:21;;;;;;;11.80;6.73;;;15.30;96.30;;;;;;4919332;29;20432;-79
2022/09/15 10:08:58;;;;;;;10.97;6.10;;;15.30;96.30;;;;;;4936182;29;20840;-79
2022/09/15 10:11:51;;;;;;;12.13;5.90;;;15.30;96.30;;;;;;4918312;29;20528;-79
2022/09/15 10:14:29;;;;;;;12.73;5.90;;;15.10;96.30;;;;;;4923527;29;20440;-79
2022/09/15 10:17:14;;;;;;;11.30;7.60;;;14.90;96.30;;;;;;4925497;29;20444;-80
2022/09/15 10:30:17;;;;;;;15.23;7.97;;;14.00;96.30;;;;;;4950207;29;20479;-80
2022/09/15 10:32:43;;;;;;;22.17;7.60;;;14.10;96.30;;;;;;4936284;29;20494;-81
2022/09/15 10:35:10;;;;;;;9.70;6.73;;;14.20;96.30;;;;;;4937153;29;20987;-81
2022/09/15 10:37:44;;;;;;;11.53;7.57;;;14.30;96.30;;;;;;4925068;29;20194;-81
2022/09/15 10:40:22;;;;;;;10.83;6.23;;;14.40;96.30;;;;;;4915586;29;20431;-81
2022/09/15 10:42:50;;;;;;;10.13;6.70;;;14.50;96.30;;;;;;4918973;29;20425;-81
2022/09/15 10:45:25;;;;;;;12.00;6.20;;;14.60;96.30;;;;;;4937199;29;20939;-79
2022/09/15 10:48:13;;;;;;;10.90;5.80;;;14.70;96.30;;;;;;4917743;28;20403;-79
2022/09/15 10:51:07;;;;;;;9.60;5.33;;;14.80;96.30;;;;;;4925769;29;20524;-80
2022/09/15 10:53:47;;;;;;;9.53;6.07;;;14.90;96.30;;;;;;4928222;29;20420;-79
2022/09/15 10:56:42;;;;;;;12.17;5.00;;;14.80;96.30;;;;;;4920761;29;20405;-81
2022/09/15 10:59:26;;;;;;;13.80;4.50;;;14.70;96.30;;;;;;4926720;29;20455;-79
2022/09/15 11:02:32;;;;;;;11.60;3.90;;;14.60;96.30;;;;;;4930258;29;20445;-79
2022/09/15 11:05:19;;;;;;;9.83;4.20;;;14.70;96.30;;;;;;4930096;29;20407;-80
2022/09/15 11:08:13;;;;;;;14.40;3.70;;;14.70;96.30;;;;;;4927289;29;20412;-79
2022/09/15 11:10:52;;;;;;;8.73;3.40;;;14.60;96.30;;;;;;4927941;29;20455;-78
2022/09/15 11:13:49;;;;;;;12.90;5.07;;;14.40;96.30;;;;;;4931953;29;20427;-78
2022/09/15 11:16:40;;;;;;;11.53;3.60;;;14.70;96.30;;;;;;4932894;28;20428;-79
2022/09/15 11:19:11;;;;;;;3.30;2.33;;;14.90;96.30;;;;;;4919382;29;20431;-78
2022/09/15 11:21:52;;;;;;;10.20;3.83;;;15.00;96.30;;;;;;4935795;29;20427;-77
2022/09/15 11:24:36;;;;;;;12.00;3.30;;;15.20;96.30;;;;;;4934204;29;20471;-78
2022/09/15 11:27:10;;;;;;;8.63;2.90;;;15.40;96.30;;;;;;4933337;29;20975;-77
2022/09/15 11:29:53;;;;;;;10.83;3.60;;;15.70;96.30;;;;;;4929206;29;20895;-78
2022/09/15 11:32:26;;;;;;;8.03;3.80;;;15.70;96.30;;;;;;4934410;29;20454;-78
2022/09/15 11:35:13;;;;;;;7.23;3.70;;;15.90;96.30;;;;;;4934546;29;20923;-78
2022/09/15 11:37:44;;;;;;;8.80;3.80;;;16.20;96.30;;;;;;4934137;29;20502;-78
2022/09/15 11:40:22;;;;;;;5.67;3.63;;;16.40;96.30;;;;;;4936137;29;20431;-79
2022/09/15 11:43:04;;;;;;;7.00;3.67;;;17.00;96.30;;;;;;4937048;29;20807;-79
2022/09/15 11:45:37;;;;;;;8.33;3.90;;;17.40;96.30;;;;;;4939064;29;20414;-78
2022/09/15 11:48:18;;;;;;;10.20;3.87;;;17.80;96.30;;;;;;4934256;29;20474;-78
2022/09/15 11:50:47;;;;;;;6.27;3.03;;;18.10;96.30;;;;;;4918419;29;20603;-77
2022/09/15 11:53:26;;;;;;;9.30;3.60;;;18.00;96.30;;;;;;4917375;29;20428;-77
2022/09/15 11:56:18;;;;;;;8.53;3.53;;;18.20;96.30;;;;;;4917108;29;20415;-77
2022/09/15 11:59:02;;;;;;;5.70;3.37;;;18.50;96.30;;;;;;4932939;29;20416;-77
2022/09/15 12:01:58;;;;;;;5.90;3.07;;;18.40;96.30;;;;;;4937648;29;20431;-78
2022/09/15 12:04:29;;;;;;;6.10;3.50;;;18.40;96.30;;;;;;4937483;29;20451;-78
2022/09/15 12:07:02;;;;;;;7.60;3.97;;;18.40;96.30;;;;;;4937796;29;20490;-78
2022/09/15 12:09:28;;;;;;;7.63;3.10;;;18.40;96.30;;;;;;4938248;29;20474;-78
2022/09/15 12:11:59;;;;;;;7.03;3.53;;;18.30;96.30;;;;;;4925526;29;20440;-78
2022/09/15 12:14:42;;;;;;;12.73;3.83;;;17.70;96.30;;;;;;4926716;29;20211;-78
2022/09/15 12:17:36;;;;;;;9.17;4.10;;;17.70;96.30;;;;;;4925822;29;20430;-78
2022/09/15 12:20:16;;;;;;;5.53;3.07;;;17.60;96.30;;;;;;4936681;29;20934;-78
2022/09/15 12:22:57;;;;;;;11.23;3.10;;;17.30;96.30;;;;;;4937968;29;20411;-77
2022/09/15 12:25:39;;;;;;;4.33;2.70;;;17.20;96.30;;;;;;4926143;29;20441;-78
2022/09/15 12:28:20;;;;;;;10.23;3.80;;;17.10;96.30;;;;;;4937397;29;20450;-77
2022/09/15 12:30:46;;;;;;;4.90;3.10;;;16.80;96.30;;;;;;4935419;29;20459;-78
2022/09/15 12:33:42;;;;;;;6.03;3.23;;;16.80;96.30;;;;;;4938454;29;20470;-78
2022/09/15 12:36:37;;;;;;;8.50;3.30;;;17.20;96.30;;;;;;4937847;29;20183;-78
2022/09/15 12:39:35;;;;;;;12.47;3.00;;;17.60;96.30;;;;;;4933362;29;20488;-78
2022/09/15 12:42:09;;;;;;;8.40;3.40;;;17.50;96.30;;;;;;4934844;29;21010;-78
2022/09/15 12:44:49;;;;;;;5.70;3.87;;;17.40;96.30;;;;;;4937352;29;20424;-78
2022/09/15 12:47:23;;;;;;;10.83;3.63;;;17.20;96.30;;;;;;4937515;29;20934;-77
2022/09/15 12:49:51;;;;;;;7.97;3.03;;;17.00;96.30;;;;;;4936785;29;20983;-78
2022/09/15 12:52:20;;;;;;;6.40;3.00;;;17.10;96.30;;;;;;4921176;29;20448;-77
2022/09/15 12:54:56;;;;;;;6.47;3.00;;;17.60;96.30;;;;;;4918008;29;20790;-77
2022/09/15 12:57:32;;;;;;;8.50;2.80;;;17.50;96.30;;;;;;4918846;29;20426;-78
2022/09/15 13:00:21;;;;;;;7.40;2.60;;;17.90;96.30;;;;;;4937143;29;20426;-78
2022/09/15 13:02:48;;;;;;;5.63;2.77;;;17.90;96.30;;;;;;4937736;29;20851;-78
2022/09/15 13:05:40;;;;;;;4.33;3.43;;;17.60;96.30;;;;;;4937873;29;20470;-78
2022/09/15 13:08:23;;;;;;;8.80;2.80;;;17.70;96.30;;;;;;4935937;29;20451;-77
2022/09/15 13:11:09;;;;;;;12.60;3.23;;;17.90;96.30;;;;;;4941748;29;20486;-76
2022/09/15 13:13:59;;;;;;;6.10;2.20;;;18.30;96.30;;;;;;4936373;29;20427;-78
2022/09/15 13:16:32;;;;;;;9.00;2.37;;;18.30;96.30;;;;;;4936528;29;20515;-77
2022/09/15 13:19:40;;;;;;;8.03;2.20;;;17.80;96.30;;;;;;4935254;29;20439;-77
2022/09/15 13:22:08;;;;;;;4.80;1.73;;;17.60;96.30;;;;;;4942861;29;20459;-77
2022/09/15 13:25:00;;;;;;;5.03;1.77;;;17.80;96.30;;;;;;4942840;29;20439;-76
2022/09/15 13:27:37;;;;;;;6.00;1.80;;;17.80;96.30;;;;;;4933806;29;20530;-77
2022/09/15 13:30:03;;;;;;;1.57;1.37;;;17.20;96.30;;;;;;4934650;29;20487;-77
2022/09/15 13:32:49;;;;;;;3.50;1.37;;;16.90;96.30;;;;;;4935315;29;20443;-76
2022/09/15 13:35:35;;;;;;;1.77;1.40;;;16.80;96.30;;;;;;4936087;29;20180;-77
2022/09/15 13:38:41;;;;;;;4.00;1.33;;;16.70;96.30;;;;;;4935440;29;20427;-78
2022/09/15 13:41:43;;;;;;;4.33;1.23;;;16.80;96.30;;;;;;4932442;29;21026;-76
2022/09/15 13:44:37;;;;;;;3.37;1.90;;;16.90;96.30;;;;;;4934964;29;20443;-77
2022/09/15 13:47:30;;;;;;;3.63;1.73;;;16.80;96.30;;;;;;4916778;29;20423;-76
2022/09/15 13:50:22;;;;;;;4.77;1.53;;;17.00;96.30;;;;;;4921125;29;20524;-77
2022/09/15 13:53:06;;;;;;;2.03;1.10;;;16.90;96.30;;;;;;4935797;29;20415;-77
2022/09/15 13:55:38;;;;;;;3.20;1.80;;;17.00;96.30;;;;;;4936553;29;20411;-76
2022/09/15 13:58:04;;;;;;;5.57;1.60;;;16.70;96.30;;;;;;4936365;29;20416;-76
2022/09/15 14:00:34;;;;;;;1.97;1.50;;;16.30;96.30;;;;;;4935299;29;20431;-76
2022/09/15 14:03:04;;;;;;;5.13;1.53;;;16.30;96.30;;;;;;4936653;29;20478;-76
2022/09/15 14:05:33;;;;;;;5.97;1.87;;;16.40;96.30;;;;;;4925426;29;20413;-77
2022/09/15 14:08:28;;;;;;;2.90;1.43;;;16.40;96.30;;;;;;4916465;29;20472;-76
2022/09/15 14:10:57;;;;;;;6.10;1.70;;;16.30;96.30;;;;;;4918429;29;20440;-76
2022/09/15 14:13:25;;;;;;;2.80;1.80;;;16.00;96.30;;;;;;4918476;29;20419;-75
2022/09/15 14:16:26;;;;;;;4.53;1.90;;;15.90;96.30;;;;;;4918778;29;20408;-75
2022/09/15 14:18:55;;;;;;;3.00;1.50;;;15.80;96.30;;;;;;4904924;29;20957;-75
2022/09/15 14:21:25;;;;;;;2.27;1.30;;;15.60;96.30;;;;;;4919171;29;20443;-75
2022/09/15 14:23:53;;;;;;;3.40;1.70;;;15.70;96.30;;;;;;4918404;29;20420;-76
2022/09/15 14:26:22;;;;;;;2.50;1.43;;;15.80;96.30;;;;;;4918508;29;20420;-75
2022/09/15 14:28:54;;;;;;;3.60;1.57;;;15.80;96.30;;;;;;4917518;29;20875;-75
2022/09/15 14:31:27;;;;;;;3.57;1.60;;;15.80;96.30;;;;;;4918949;29;20447;-76
2022/09/15 14:33:53;;;;;;;2.07;1.37;;;15.80;96.30;;;;;;4917854;29;20461;-75
2022/09/15 14:36:27;;;;;;;4.40;1.60;;;15.70;96.30;;;;;;4918733;29;20770;-76
2022/09/15 14:39:15;;;;;;;3.37;1.50;;;15.50;96.30;;;;;;4918266;29;20160;-76
2022/09/15 14:41:41;;;;;;;3.50;1.90;;;15.40;96.30;;;;;;4943838;28;20470;-78
2022/09/15 14:44:20;;;;;;;3.03;1.80;;;15.40;96.30;;;;;;4955389;28;20462;-76
2022/09/15 14:46:46;;;;;;;6.13;1.80;;;15.50;96.30;;;;;;4956752;28;20399;-74
2022/09/15 14:49:13;;;;;;;3.43;2.00;;;15.70;96.30;;;;;;4956429;28;20958;-75
2022/09/15 14:51:42;;;;;;;6.97;1.77;;;15.80;96.30;;;;;;4956037;28;20202;-75
2022/09/15 14:54:31;;;;;;;12.50;2.10;;;16.00;96.30;;;;;;4956402;28;20410;-75
2022/09/15 14:57:00;;;;;;;2.17;1.97;;;15.90;96.30;;;;;;4954748;29;20419;-76
2022/09/15 14:59:45;;;;;;;4.30;1.90;;;16.00;96.30;;;;;;4953603;28;20911;-75
2022/09/15 15:02:36;;;;;;;8.67;2.30;;;15.90;96.30;;;;;;4934121;29;20455;-77
2022/09/15 15:05:13;;;;;;;9.90;2.63;;;15.70;96.30;;;;;;4916136;29;20451;-75
2022/09/15 15:07:40;;;;;;;9.20;2.23;;;15.80;96.30;;;;;;4919440;29;20483;-75
2022/09/15 15:10:19;;;;;;;8.53;2.30;;;15.70;96.30;;;;;;4929671;29;20459;-75
2022/09/15 15:12:48;;;;;;;4.47;2.00;;;15.60;96.30;;;;;;4927264;29;21141;-75
2022/09/15 15:15:15;;;;;;;2.53;1.80;;;15.40;96.30;;;;;;4926266;29;20504;-77
2022/09/15 15:17:44;;;;;;;4.80;2.23;;;15.30;96.30;;;;;;4931227;29;20424;-77
2022/09/15 15:20:09;;;;;;;7.77;2.50;;;15.00;96.30;;;;;;4926527;29;20475;-75
2022/09/15 15:22:40;;;;;;;3.80;2.00;;;14.90;96.30;;;;;;4927998;29;20447;-75
2022/09/15 15:25:28;;;;;;;2.37;2.00;;;14.90;96.30;;;;;;4927496;29;20266;-76
2022/09/15 15:27:56;;;;;;;5.57;2.23;;;14.90;96.30;;;;;;4926066;29;20832;-76
2022/09/15 15:30:28;;;;;;;4.77;2.17;;;15.00;96.30;;;;;;4925486;29;20464;-76
2022/09/15 15:32:55;;;;;;;4.57;2.00;;;15.00;96.30;;;;;;4928273;29;20403;-77
2022/09/15 15:35:21;;;;;;;2.77;1.63;;;15.00;96.30;;;;;;4927005;29;20416;-77
2022/09/15 15:37:48;;;;;;;6.70;2.13;;;14.90;96.30;;;;;;4932463;29;20439;-77
2022/09/15 15:40:16;;;;;;;6.00;1.90;;;14.90;96.30;;;;;;4935708;28;20459;-77
2022/09/15 15:43:11;;;;;;;2.43;1.77;;;14.80;96.30;;;;;;4955919;28;20458;-77
2022/09/15 15:45:48;;;;;;;2.50;1.60;;;14.80;96.30;;;;;;4956829;29;20449;-77
2022/09/15 15:48:13;;;;;;;1.97;1.40;;;14.80;96.30;;;;;;4956419;28;20414;-77
2022/09/15 15:50:38;;;;;;;1.77;1.57;;;14.80;96.30;;;;;;4956998;28;20450;-77
2022/09/15 15:53:04;;;;;;;2.10;1.40;;;14.80;96.30;;;;;;4956885;28;20659;-77
2022/09/15 15:55:39;;;;;;;3.37;1.80;;;14.90;96.30;;;;;;4956946;28;20201;-77
2022/09/15 15:58:05;;;;;;;3.37;1.80;;;14.90;96.30;;;;;;4940757;28;20195;-77
2022/09/15 16:00:49;;;;;;;4.67;1.53;;;14.90;96.30;;;;;;4936555;29;20430;-77
2022/09/15 16:03:16;;;;;;;5.63;2.30;;;14.80;96.30;;;;;;4935566;29;20943;-77
2022/09/15 16:05:48;;;;;;;2.27;1.60;;;14.70;96.30;;;;;;4937438;28;20486;-77
2022/09/15 16:08:32;;;;;;;6.27;1.73;;;14.50;96.30;;;;;;4920956;29;20483;-77
2022/09/15 16:10:59;;;;;;;5.20;1.70;;;14.30;96.30;;;;;;4919354;29;20460;-76
2022/09/15 16:13:25;;;;;;;5.80;1.67;;;14.20;96.30;;;;;;4935199;29;20420;-76
2022/09/15 16:15:57;;;;;;;4.97;2.60;;;14.20;96.30;;;;;;4945920;29;20422;-76
2022/09/15 16:18:23;;;;;;;1.30;1.20;;;14.00;96.30;;;;;;4930311;29;20676;-75
2022/09/15 16:23:24;;;;;;;4.30;1.73;;;14.30;96.30;;;;;;5095403;23;20489;-75
2022/09/15 16:26:01;;;;;;;2.07;1.30;;;14.30;96.30;;;;;;4947469;28;20431;-75
2022/09/15 16:28:30;;;;;;;2.63;1.60;;;14.40;96.30;;;;;;4937822;28;20246;-75
2022/09/15 16:30:56;;;;;;;9.33;1.50;;;14.30;96.30;;;;;;4957667;28;20800;-77
2022/09/15 16:33:22;;;;;;;4.43;2.00;;;14.30;96.30;;;;;;4962676;28;20435;-76
2022/09/15 16:36:02;;;;;;;7.77;1.90;;;14.20;96.30;;;;;;4962894;28;20436;-77
2022/09/15 16:38:27;;;;;;;2.37;1.57;;;14.00;96.30;;;;;;4955049;28;20505;-76
2022/09/15 16:40:53;;;;;;;4.00;1.90;;;14.00;96.30;;;;;;4956562;28;20522;-76
2022/09/15 16:43:21;;;;;;;6.00;1.83;;;13.90;96.30;;;;;;4949136;29;20310;-76
2022/09/15 16:45:47;;;;;;;5.23;1.60;;;13.80;96.30;;;;;;4952343;29;20430;-76
2022/09/15 16:48:13;;;;;;;2.07;1.87;;;13.70;96.30;;;;;;4955098;28;20419;-76
2022/09/15 16:50:39;;;;;;;4.47;2.03;;;13.60;96.30;;;;;;4955399;28;20445;-74
2022/09/15 16:53:11;;;;;;;3.53;1.70;;;13.60;96.30;;;;;;4943565;29;20266;-76
2022/09/15 16:55:45;;;;;;;5.53;2.13;;;13.50;96.30;;;;;;4954590;28;20756;-75
2022/09/15 16:58:11;;;;;;;3.87;1.70;;;13.30;96.30;;;;;;4937327;29;20827;-75
2022/09/15 17:00:38;;;;;;;2.93;1.60;;;13.20;96.30;;;;;;4954455;29;20430;-75
2022/09/15 17:03:05;;;;;;;4.57;1.87;;;13.20;96.30;;;;;;4957034;29;20813;-76
2022/09/15 17:05:35;;;;;;;3.50;1.90;;;13.10;96.30;;;;;;4955281;29;20419;-75
2022/09/15 17:08:01;;;;;;;2.83;1.63;;;13.10;96.30;;;;;;4956473;29;20738;-75
2022/09/15 17:10:27;;;;;;;5.30;1.83;;;13.10;96.30;;;;;;4955282;29;20430;-75
2022/09/15 17:12:52;;;;;;;4.50;1.70;;;13.00;96.30;;;;;;4956265;29;20406;-76
2022/09/15 17:15:44;;;;;;;9.77;2.23;;;13.00;96.30;;;;;;4939489;29;20660;-75
2022/09/15 17:18:15;;;;;;;4.53;2.03;;;12.90;96.30;;;;;;4948061;28;20191;-77
2022/09/15 17:20:45;;;;;;;6.70;1.67;;;12.90;96.30;;;;;;4955649;28;20434;-77
2022/09/15 17:23:30;;;;;;;5.17;1.70;;;12.80;96.30;;;;;;4956307;28;20430;-76
2022/09/15 17:26:09;;;;;;;1.90;1.70;;;12.70;96.30;;;;;;4951874;28;20814;-76
2022/09/15 17:28:35;;;;;;;4.10;2.80;;;12.60;96.30;;;;;;4945706;28;20445;-77
2022/09/15 17:31:12;;;;;;;5.67;2.03;;;12.50;96.30;;;;;;4960517;28;20443;-76
2022/09/15 17:33:37;;;;;;;6.43;2.37;;;12.30;96.30;;;;;;4942342;28;20502;-76
2022/09/15 17:36:03;;;;;;;5.23;2.20;;;12.20;96.30;;;;;;4945447;29;20458;-77
2022/09/15 17:38:30;;;;;;;3.97;2.43;;;12.20;96.30;;;;;;4942092;28;20254;-76
2022/09/15 17:40:55;;;;;;;4.50;2.87;;;12.20;96.30;;;;;;4951101;28;20430;-76
2022/09/15 17:43:26;;;;;;;6.23;2.23;;;12.20;96.30;;;;;;4943370;29;20421;-76